KRKW

Details ICAO KRKW
Name Rockwood Muni
Region United States
Timezone America/Chicago (UTC-5.0)
Plans Departing 2
Arriving 3
Stats Elevation 1,664 ft / 507 m (AMSL)
Location 35.922266° -84.689734°
Runways 1
Magnetic Variation 5.268° W
Sunrise 2018-05-25 10:28:03 UTC / 2018-05-25 05:28:03 Local
Sunset 2018-05-26 00:46:16 UTC / 2018-05-25 19:46:16 Local
Advertisement - Login to hide

Runways

ID Width Length Bearing (true) Bearing (mag) Surface Threshold Offset Overrun Length
04 100 ft / 30 m 4,998 ft / 1,523 m 39.22° 44.49° Asphalt 0 ft / 0 m 0 ft / 0 m
22 100 ft / 30 m 4,998 ft / 1,523 m 219.23° 224.50° Asphalt 0 ft / 0 m 0 ft / 0 m

Map

Weather


0- 5 10 15 20 25 30 35+ Temperature / ° C

Clouds and Precipitation
Forecast for 2018-05-25 06:00 UTC. Updated 3 hours ago

Ground ~20,000 ft ~40,000 ft Winds

METAR

KRKW 250755Z AUTO 27003KT 10SM FEW055 19/18 A3009 RMK A01

TAF

Not found

Frequencies

Recorded 118.77 MHz AWOS 3
Unicom 122.80 MHz UNICOM
Warning: Do not use this data for real-world aviation or navigation. No guarantee of current accuracy is given.